Time;durP1;ratioP1;P1;durP2;ratioP2;P2;SDS_P1;SDS_P2;PMS_P1;PMS_P2;Temp;Humidity;BMP_temperature;BMP_pressure;BME280_temperature;BME280_humidity;BME280_pressure;Samples;Min_cycle;Max_cycle;Signal;HPM_P1;HPM_P2
2024/01/08 00:00:35;;;;;;;7.70;3.63;;;2.30;95.10;;;;;;5073833;28;20822;-67
2024/01/08 00:03:01;;;;;;;5.03;3.70;;;2.30;95.00;;;;;;5074129;28;20456;-67
2024/01/08 00:05:29;;;;;;;5.57;3.73;;;2.30;94.40;;;;;;5073941;28;20449;-67
2024/01/08 00:07:56;;;;;;;4.37;3.33;;;2.30;94.30;;;;;;5073174;28;20993;-67
2024/01/08 00:10:23;;;;;;;4.90;4.40;;;2.30;95.00;;;;;;5073789;28;20445;-67
2024/01/08 00:12:49;;;;;;;6.23;3.97;;;2.40;94.70;;;;;;5073646;28;20484;-68
2024/01/08 00:15:16;;;;;;;3.90;3.27;;;2.40;94.90;;;;;;5073785;28;20437;-67
2024/01/08 00:17:43;;;;;;;4.20;3.20;;;2.40;94.40;;;;;;5073670;28;20486;-67
2024/01/08 00:20:10;;;;;;;4.17;3.30;;;2.20;93.70;;;;;;5073684;28;20453;-67
2024/01/08 00:22:38;;;;;;;6.10;3.43;;;2.30;93.80;;;;;;5073432;28;20445;-68
2024/01/08 00:25:06;;;;;;;4.90;2.90;;;2.20;93.70;;;;;;5073386;28;20444;-67
2024/01/08 00:27:33;;;;;;;3.47;3.10;;;2.10;93.60;;;;;;5073801;28;20461;-67
2024/01/08 00:30:00;;;;;;;2.73;2.53;;;2.00;93.90;;;;;;5073583;28;20480;-67
2024/01/08 00:32:26;;;;;;;2.30;2.10;;;2.10;94.10;;;;;;5073586;28;20487;-68
2024/01/08 00:34:53;;;;;;;3.60;3.10;;;2.10;93.40;;;;;;5073587;28;20484;-67
2024/01/08 00:37:20;;;;;;;3.20;2.90;;;2.10;93.20;;;;;;5073237;28;20476;-68
2024/01/08 00:39:48;;;;;;;2.60;2.40;;;2.10;92.40;;;;;;5073337;28;20440;-67
2024/01/08 00:42:14;;;;;;;5.70;3.90;;;2.10;92.30;;;;;;5073633;28;20449;-67
2024/01/08 00:44:41;;;;;;;2.90;2.70;;;2.10;91.40;;;;;;5073077;28;20957;-67
2024/01/08 00:47:08;;;;;;;2.60;2.40;;;2.10;91.50;;;;;;5073304;28;20464;-67
2024/01/08 00:49:34;;;;;;;4.77;3.13;;;2.10;91.10;;;;;;5073357;28;20453;-67
2024/01/08 00:52:01;;;;;;;4.60;2.90;;;2.10;91.40;;;;;;5073097;28;21059;-68
2024/01/08 00:54:28;;;;;;;3.43;2.67;;;2.10;91.10;;;;;;5073002;28;20977;-68
2024/01/08 00:56:56;;;;;;;5.63;2.63;;;2.10;91.30;;;;;;5073316;28;20448;-68
2024/01/08 00:59:22;;;;;;;3.80;2.70;;;2.10;90.90;;;;;;5072693;28;20449;-67
2024/01/08 01:01:49;;;;;;;2.87;2.40;;;2.10;90.80;;;;;;5073641;28;20520;-68
2024/01/08 01:04:16;;;;;;;4.20;2.73;;;2.10;90.60;;;;;;5074958;28;20570;-68
2024/01/08 01:06:44;;;;;;;2.40;2.20;;;2.10;90.80;;;;;;5075351;28;20523;-68
2024/01/08 01:09:11;;;;;;;3.47;2.70;;;2.20;90.90;;;;;;5075456;28;20904;-67
2024/01/08 01:11:37;;;;;;;2.63;2.43;;;2.20;90.70;;;;;;5074904;28;20449;-67
2024/01/08 01:14:05;;;;;;;3.67;2.60;;;2.10;90.60;;;;;;5074628;28;20541;-68
2024/01/08 01:16:33;;;;;;;3.70;3.03;;;2.10;90.50;;;;;;5074112;28;20444;-67
2024/01/08 01:19:00;;;;;;;3.13;2.77;;;2.20;90.90;;;;;;5074642;28;20457;-68
2024/01/08 01:21:28;;;;;;;3.80;3.07;;;2.20;90.80;;;;;;5078939;28;20436;-68
2024/01/08 01:23:55;;;;;;;3.97;3.57;;;2.20;90.90;;;;;;5078117;28;20949;-68
2024/01/08 01:26:22;;;;;;;3.60;2.70;;;2.20;91.30;;;;;;5077733;28;20451;-68
2024/01/08 01:28:48;;;;;;;2.70;2.30;;;2.20;90.80;;;;;;5077384;28;20468;-68
2024/01/08 01:31:16;;;;;;;3.00;2.60;;;2.20;90.60;;;;;;5077431;28;20476;-68
2024/01/08 01:33:43;;;;;;;3.10;2.80;;;2.20;91.20;;;;;;5077475;28;20495;-68
2024/01/08 01:36:10;;;;;;;7.17;3.23;;;2.20;91.00;;;;;;5077223;28;20460;-67
2024/01/08 01:38:37;;;;;;;4.97;3.57;;;2.20;90.80;;;;;;5076783;28;20481;-67
2024/01/08 01:41:03;;;;;;;4.63;3.90;;;2.20;91.10;;;;;;5076727;28;20460;-68
2024/01/08 01:43:30;;;;;;;5.90;3.40;;;2.20;91.30;;;;;;5076942;28;20524;-67
2024/01/08 01:46:01;;;;;;;4.70;4.20;;;2.20;91.50;;;;;;5076822;28;20444;-67
2024/01/08 01:48:30;;;;;;;4.67;3.77;;;2.20;91.60;;;;;;5076965;28;20581;-67
2024/01/08 01:50:57;;;;;;;5.03;4.47;;;2.20;92.00;;;;;;5076883;28;20441;-67
2024/01/08 01:53:24;;;;;;;6.20;4.90;;;2.10;92.00;;;;;;5076827;28;20480;-67
2024/01/08 01:55:53;;;;;;;5.10;4.43;;;2.10;92.10;;;;;;5076262;28;20969;-68
2024/01/08 01:58:21;;;;;;;9.53;4.97;;;2.10;92.70;;;;;;5076314;28;20850;-68
2024/01/08 02:00:48;;;;;;;7.70;4.80;;;2.00;92.70;;;;;;5076355;28;20452;-67
2024/01/08 02:03:15;;;;;;;7.10;4.03;;;2.10;93.20;;;;;;5076409;28;20447;-68
2024/01/08 02:05:43;;;;;;;8.10;4.53;;;2.10;93.30;;;;;;5076547;28;20503;-67
2024/01/08 02:08:11;;;;;;;7.10;5.30;;;2.10;93.30;;;;;;5076243;28;20468;-67
2024/01/08 02:10:40;;;;;;;6.80;5.17;;;2.10;93.10;;;;;;5076496;28;20440;-68
2024/01/08 02:13:07;;;;;;;7.60;4.77;;;2.10;92.90;;;;;;5076403;28;20489;-68
2024/01/08 02:15:34;;;;;;;5.67;5.07;;;2.10;92.80;;;;;;5076165;28;20445;-67
2024/01/08 02:18:00;;;;;;;7.20;5.27;;;2.20;93.00;;;;;;5075789;28;20461;-68
2024/01/08 02:20:27;;;;;;;5.23;4.70;;;2.10;92.90;;;;;;5076002;28;20444;-68
2024/01/08 02:22:58;;;;;;;7.33;5.23;;;2.20;93.20;;;;;;5075813;28;20448;-67
2024/01/08 02:25:25;;;;;;;8.27;6.33;;;2.20;93.50;;;;;;5076047;28;20437;-67
2024/01/08 02:27:52;;;;;;;10.10;5.50;;;2.20;93.00;;;;;;5076198;28;20461;-68
2024/01/08 02:30:19;;;;;;;7.07;5.70;;;2.10;92.80;;;;;;5075230;28;20456;-68
2024/01/08 02:32:45;;;;;;;8.03;6.00;;;2.10;93.10;;;;;;5075258;28;21089;-67
2024/01/08 02:35:12;;;;;;;6.70;4.87;;;2.10;93.00;;;;;;5075647;28;20452;-68
2024/01/08 02:37:39;;;;;;;6.73;5.13;;;2.10;93.00;;;;;;5075897;28;20472;-68
2024/01/08 02:40:08;;;;;;;6.53;5.10;;;2.00;93.00;;;;;;5076067;28;20441;-67
2024/01/08 02:42:38;;;;;;;6.10;5.47;;;2.00;93.20;;;;;;5075487;28;20980;-67
2024/01/08 02:45:06;;;;;;;6.43;5.07;;;1.90;93.10;;;;;;5075557;28;20429;-68
2024/01/08 02:47:37;;;;;;;5.90;5.30;;;1.90;93.10;;;;;;5075444;28;20530;-67
2024/01/08 02:50:04;;;;;;;6.60;5.90;;;1.80;92.70;;;;;;5075592;28;20448;-67
2024/01/08 02:52:31;;;;;;;6.70;5.43;;;1.80;92.90;;;;;;5075694;28;20850;-68
2024/01/08 02:54:58;;;;;;;7.03;5.60;;;1.80;93.00;;;;;;5075163;28;20855;-68
2024/01/08 02:57:28;;;;;;;6.90;5.50;;;1.70;93.20;;;;;;5075037;28;20997;-68
2024/01/08 02:59:55;;;;;;;6.60;5.70;;;1.70;93.50;;;;;;5075387;28;20768;-68
2024/01/08 03:02:22;;;;;;;6.37;5.40;;;1.70;93.70;;;;;;5075628;28;20791;-68
2024/01/08 03:04:48;;;;;;;6.43;5.40;;;1.70;93.90;;;;;;5075414;28;20817;-68
2024/01/08 03:07:17;;;;;;;6.03;5.53;;;1.70;94.00;;;;;;5075097;28;20471;-68
2024/01/08 03:09:44;;;;;;;7.27;5.20;;;1.70;94.50;;;;;;5075819;28;20489;-68
2024/01/08 03:12:11;;;;;;;6.77;6.00;;;1.60;94.10;;;;;;5074740;28;20445;-68
2024/01/08 03:14:39;;;;;;;8.00;6.00;;;1.50;93.90;;;;;;5075115;28;20445;-67
2024/01/08 03:17:06;;;;;;;7.77;6.33;;;1.50;94.40;;;;;;5074834;28;20437;-68
2024/01/08 03:19:33;;;;;;;7.40;5.20;;;1.50;94.80;;;;;;5074858;28;20476;-68
2024/01/08 03:22:01;;;;;;;6.67;6.07;;;1.50;95.00;;;;;;5075100;28;20440;-68
2024/01/08 03:24:28;;;;;;;6.37;5.60;;;1.50;95.10;;;;;;5075376;28;20444;-68
2024/01/08 03:26:54;;;;;;;7.37;6.57;;;1.60;95.10;;;;;;5074884;28;20451;-68
2024/01/08 03:29:22;;;;;;;8.17;6.00;;;1.60;94.90;;;;;;5074737;28;20970;-68
2024/01/08 03:31:50;;;;;;;7.37;5.90;;;1.60;94.80;;;;;;5074692;28;20849;-68
2024/01/08 03:34:17;;;;;;;6.70;6.00;;;1.60;94.90;;;;;;5074484;28;20476;-68
2024/01/08 03:36:45;;;;;;;5.87;5.20;;;1.60;95.00;;;;;;5074306;28;20945;-68
2024/01/08 03:39:13;;;;;;;7.87;6.40;;;1.60;95.20;;;;;;5074482;28;20464;-68
2024/01/08 03:41:40;;;;;;;7.77;6.37;;;1.60;95.30;;;;;;5073668;28;20485;-68
2024/01/08 03:44:07;;;;;;;8.63;7.10;;;1.60;95.00;;;;;;5074567;28;20555;-68
2024/01/08 03:46:34;;;;;;;10.27;5.67;;;1.60;95.00;;;;;;5074135;28;20938;-68
2024/01/08 03:49:02;;;;;;;7.67;6.30;;;1.60;95.10;;;;;;5074326;28;20460;-68
2024/01/08 03:51:29;;;;;;;6.97;5.83;;;1.70;95.30;;;;;;5074279;28;20447;-68
2024/01/08 03:53:55;;;;;;;6.73;5.87;;;1.60;95.40;;;;;;5074080;28;20488;-68
2024/01/08 03:56:22;;;;;;;8.87;6.50;;;1.70;95.80;;;;;;5074390;28;20440;-69
2024/01/08 03:58:49;;;;;;;7.17;5.97;;;1.70;95.80;;;;;;5074315;28;20465;-68
2024/01/08 04:01:16;;;;;;;10.83;6.70;;;1.70;95.90;;;;;;5074373;28;20441;-68
2024/01/08 04:03:42;;;;;;;9.03;7.03;;;1.70;95.90;;;;;;5073835;28;20953;-68
2024/01/08 04:06:11;;;;;;;6.70;6.00;;;1.80;96.00;;;;;;5073755;28;20441;-68
2024/01/08 04:08:37;;;;;;;10.60;6.30;;;1.70;95.90;;;;;;5073520;28;20970;-68
2024/01/08 04:11:04;;;;;;;8.93;6.43;;;1.70;95.90;;;;;;5073876;28;20527;-68
2024/01/08 04:13:31;;;;;;;9.90;7.07;;;1.70;95.60;;;;;;5074042;28;20484;-69
2024/01/08 04:15:58;;;;;;;8.50;6.40;;;1.60;95.60;;;;;;5075101;28;20445;-69
2024/01/08 04:18:24;;;;;;;7.60;6.80;;;1.60;95.70;;;;;;5076959;28;20460;-68
2024/01/08 04:20:51;;;;;;;9.20;7.53;;;1.70;96.00;;;;;;5076344;28;20440;-68
2024/01/08 04:23:19;;;;;;;8.90;7.57;;;1.70;96.00;;;;;;5075513;28;20452;-68
2024/01/08 04:25:46;;;;;;;9.07;7.53;;;1.70;96.00;;;;;;5074744;28;20449;-68
2024/01/08 04:28:13;;;;;;;8.73;6.90;;;1.70;95.80;;;;;;5074238;28;20456;-68
2024/01/08 04:30:39;;;;;;;9.53;6.93;;;1.70;95.70;;;;;;5074492;28;20825;-68
2024/01/08 04:33:08;;;;;;;10.00;6.53;;;1.70;95.90;;;;;;5073838;28;20503;-68
2024/01/08 04:35:35;;;;;;;6.70;6.10;;;1.60;96.00;;;;;;5073983;28;20452;-68
2024/01/08 04:38:02;;;;;;;8.70;5.90;;;1.70;96.10;;;;;;5073849;28;20465;-68
2024/01/08 04:40:30;;;;;;;10.30;7.07;;;1.70;96.20;;;;;;5073697;28;20448;-68
2024/01/08 04:42:56;;;;;;;7.43;6.57;;;1.70;96.30;;;;;;5073537;28;20440;-68
2024/01/08 04:45:23;;;;;;;8.47;7.07;;;1.70;96.80;;;;;;5073866;28;20451;-68
2024/01/08 04:47:50;;;;;;;9.07;6.47;;;1.70;96.40;;;;;;5073749;28;20472;-68
2024/01/08 04:50:17;;;;;;;10.57;7.80;;;1.70;96.60;;;;;;5073826;28;20444;-68
2024/01/08 04:52:43;;;;;;;8.60;6.80;;;1.70;96.70;;;;;;5073072;28;20927;-68
2024/01/08 04:55:10;;;;;;;9.50;6.50;;;1.70;96.50;;;;;;5074626;28;20441;-68
2024/01/08 04:57:38;;;;;;;8.00;6.80;;;1.70;96.60;;;;;;5074762;28;20805;-68
2024/01/08 05:00:06;;;;;;;9.90;7.60;;;1.70;96.80;;;;;;5074201;28;20440;-68
2024/01/08 05:02:33;;;;;;;10.23;8.40;;;1.70;96.90;;;;;;5073833;28;20506;-68
2024/01/08 05:05:01;;;;;;;11.23;8.43;;;1.70;97.10;;;;;;5073651;28;20440;-68
2024/01/08 05:07:28;;;;;;;8.50;6.70;;;1.70;97.20;;;;;;5073356;28;21009;-69
2024/01/08 05:09:54;;;;;;;10.47;8.63;;;1.70;97.20;;;;;;5073503;28;20455;-68
2024/01/08 05:12:21;;;;;;;15.70;10.20;;;1.80;97.20;;;;;;5073229;28;20445;-68
2024/01/08 05:14:49;;;;;;;10.23;8.37;;;1.80;97.30;;;;;;5073558;28;20519;-68
2024/01/08 05:17:16;;;;;;;10.20;7.77;;;1.80;97.30;;;;;;5073644;28;20472;-68
2024/01/08 05:19:43;;;;;;;10.67;7.73;;;1.80;97.30;;;;;;5073759;28;20451;-68
2024/01/08 05:22:09;;;;;;;9.17;7.60;;;1.80;97.20;;;;;;5073987;28;20810;-68
2024/01/08 05:24:36;;;;;;;9.03;7.70;;;1.80;97.20;;;;;;5074105;28;20451;-68
2024/01/08 05:27:03;;;;;;;10.00;7.60;;;1.80;97.10;;;;;;5073540;28;20447;-68
2024/01/08 05:29:30;;;;;;;10.10;7.27;;;1.80;97.20;;;;;;5073798;28;20459;-69
2024/01/08 05:31:58;;;;;;;7.53;6.80;;;1.70;97.10;;;;;;5073952;28;20444;-68
2024/01/08 05:34:24;;;;;;;8.87;7.43;;;1.80;97.20;;;;;;5074305;28;20476;-69
2024/01/08 05:36:51;;;;;;;10.00;7.50;;;1.80;97.30;;;;;;5073660;28;20449;-69
2024/01/08 05:39:18;;;;;;;11.63;7.83;;;1.80;97.30;;;;;;5073901;28;20455;-68
2024/01/08 05:41:45;;;;;;;7.73;6.93;;;1.80;97.20;;;;;;5074704;28;20536;-68
2024/01/08 05:44:13;;;;;;;10.27;7.63;;;1.70;97.00;;;;;;5074261;28;20491;-69
2024/01/08 05:46:42;;;;;;;11.50;7.67;;;1.80;97.20;;;;;;5073876;28;20532;-68
2024/01/08 05:49:10;;;;;;;8.60;7.70;;;1.70;97.30;;;;;;5073435;28;20471;-68
2024/01/08 05:51:37;;;;;;;8.73;7.77;;;1.80;97.60;;;;;;5073247;28;20441;-69
2024/01/08 05:54:04;;;;;;;8.77;7.87;;;1.70;97.50;;;;;;5073374;28;20477;-69
2024/01/08 05:56:32;;;;;;;11.57;9.23;;;1.70;97.40;;;;;;5073825;28;20449;-69
2024/01/08 05:58:59;;;;;;;10.30;7.37;;;1.70;97.70;;;;;;5073255;28;20834;-68
2024/01/08 06:01:26;;;;;;;12.73;8.17;;;1.70;97.80;;;;;;5074536;28;20525;-68
2024/01/08 06:03:53;;;;;;;10.50;7.37;;;1.70;97.80;;;;;;5073803;28;20443;-69
2024/01/08 06:06:21;;;;;;;10.40;8.60;;;1.80;97.90;;;;;;5076283;28;20448;-69
2024/01/08 06:08:49;;;;;;;9.40;7.63;;;1.80;98.10;;;;;;5077273;28;20545;-69
2024/01/08 06:11:15;;;;;;;8.20;7.30;;;1.80;98.10;;;;;;5077680;28;20475;-69
2024/01/08 06:13:42;;;;;;;11.50;8.90;;;1.80;98.10;;;;;;5077320;28;21008;-69
2024/01/08 06:16:15;;;;;;;9.90;8.00;;;1.80;97.80;;;;;;5077693;28;20938;-69
2024/01/08 06:18:42;;;;;;;9.17;8.23;;;1.80;97.60;;;;;;5077201;28;20514;-69
2024/01/08 06:21:09;;;;;;;9.90;8.13;;;1.80;97.60;;;;;;5077312;28;20926;-69
2024/01/08 06:23:37;;;;;;;8.10;7.30;;;1.70;97.60;;;;;;5078113;28;20811;-69
2024/01/08 06:26:04;;;;;;;10.47;7.80;;;1.70;97.50;;;;;;5078510;28;20445;-69
2024/01/08 06:28:31;;;;;;;9.53;7.50;;;1.70;97.60;;;;;;5077662;28;20494;-69
2024/01/08 06:30:57;;;;;;;9.90;7.70;;;1.80;97.70;;;;;;5077694;28;20444;-69
2024/01/08 06:33:24;;;;;;;10.03;8.30;;;1.70;97.70;;;;;;5078096;28;20989;-69
2024/01/08 06:35:51;;;;;;;8.70;7.13;;;1.80;97.90;;;;;;5078963;28;20456;-69
2024/01/08 06:38:17;;;;;;;8.37;7.07;;;1.80;98.20;;;;;;5078167;28;20467;-69
2024/01/08 06:40:45;;;;;;;13.80;8.23;;;1.70;98.60;;;;;;5079283;28;20459;-70
2024/01/08 06:43:13;;;;;;;9.47;7.20;;;1.70;98.90;;;;;;5080018;28;20433;-69
2024/01/08 06:45:40;;;;;;;8.50;7.40;;;1.70;98.70;;;;;;5078146;28;20943;-69
2024/01/08 06:48:07;;;;;;;10.70;7.43;;;1.70;98.50;;;;;;5079834;28;20472;-69
2024/01/08 06:50:33;;;;;;;8.63;6.43;;;1.70;98.00;;;;;;5075874;28;20452;-69
2024/01/08 06:53:00;;;;;;;9.87;7.50;;;1.70;97.90;;;;;;5077783;28;20519;-69
2024/01/08 06:55:27;;;;;;;9.07;6.60;;;1.70;97.60;;;;;;5078703;28;20846;-69
2024/01/08 06:57:55;;;;;;;8.13;6.73;;;1.60;97.90;;;;;;5077135;28;20476;-69
2024/01/08 07:00:22;;;;;;;8.00;7.03;;;1.70;98.40;;;;;;5075342;28;20812;-69
2024/01/08 07:02:48;;;;;;;9.40;7.47;;;1.70;98.40;;;;;;5075299;28;20451;-69
2024/01/08 07:05:16;;;;;;;8.40;7.50;;;1.70;98.20;;;;;;5074833;28;20436;-69
2024/01/08 07:07:43;;;;;;;10.90;7.10;;;1.70;98.30;;;;;;5074953;28;20461;-69
2024/01/08 07:10:10;;;;;;;8.83;7.23;;;1.80;98.40;;;;;;5075071;28;20452;-69
2024/01/08 07:12:36;;;;;;;10.53;7.80;;;1.80;98.30;;;;;;5074852;28;20445;-69
2024/01/08 07:15:06;;;;;;;11.67;7.90;;;1.80;98.40;;;;;;5074897;28;20495;-69
2024/01/08 07:17:33;;;;;;;10.87;8.07;;;1.90;98.70;;;;;;5075205;28;20469;-69
2024/01/08 07:20:00;;;;;;;11.30;7.87;;;1.90;98.90;;;;;;5074713;28;20448;-69
2024/01/08 07:22:26;;;;;;;9.83;7.60;;;1.90;98.80;;;;;;5075350;28;20962;-70
2024/01/08 07:24:53;;;;;;;10.80;7.10;;;1.90;98.60;;;;;;5076541;28;20444;-69
2024/01/08 07:27:20;;;;;;;10.60;7.13;;;1.90;98.40;;;;;;5077863;28;20468;-69
2024/01/08 07:29:47;;;;;;;9.80;7.27;;;1.80;98.40;;;;;;5077358;28;20998;-69
2024/01/08 07:32:15;;;;;;;9.33;7.50;;;1.90;98.60;;;;;;5076614;28;20480;-69
2024/01/08 07:34:41;;;;;;;9.30;7.60;;;1.90;98.80;;;;;;5076048;28;20481;-69
2024/01/08 07:37:08;;;;;;;16.40;7.80;;;1.90;98.30;;;;;;5075569;28;20466;-69
2024/01/08 07:39:36;;;;;;;8.67;7.10;;;1.90;98.00;;;;;;5075338;28;20436;-69
2024/01/08 07:42:02;;;;;;;9.37;7.83;;;1.90;98.00;;;;;;5075548;28;20449;-69
2024/01/08 07:44:29;;;;;;;10.90;6.50;;;1.90;98.40;;;;;;5075202;28;20433;-68
2024/01/08 07:46:56;;;;;;;9.73;6.30;;;1.80;98.40;;;;;;5074915;28;20445;-69
2024/01/08 07:49:24;;;;;;;9.00;6.47;;;1.80;98.80;;;;;;5074512;28;20935;-69
2024/01/08 07:51:50;;;;;;;10.17;5.87;;;1.70;99.00;;;;;;5074351;28;20449;-69
2024/01/08 07:54:17;;;;;;;8.43;7.07;;;1.70;98.10;;;;;;5074624;28;20487;-68
2024/01/08 07:56:44;;;;;;;10.50;6.80;;;1.70;98.30;;;;;;5074697;28;20444;-69
2024/01/08 07:59:10;;;;;;;8.47;6.90;;;1.60;98.50;;;;;;5074237;28;20476;-69
2024/01/08 08:01:37;;;;;;;9.83;7.17;;;1.70;98.40;;;;;;5075598;28;20441;-69
2024/01/08 08:04:04;;;;;;;7.23;6.20;;;1.70;99.10;;;;;;5074188;28;20444;-69
2024/01/08 08:06:32;;;;;;;10.07;7.43;;;1.70;98.80;;;;;;5074143;28;20444;-69
2024/01/08 08:08:59;;;;;;;20.07;6.90;;;1.70;98.70;;;;;;5073613;28;20464;-69
2024/01/08 08:11:27;;;;;;;8.63;7.20;;;1.80;99.10;;;;;;5074186;28;20855;-69
2024/01/08 08:13:53;;;;;;;6.70;6.00;;;1.80;99.20;;;;;;5073402;28;20846;-69
2024/01/08 08:16:20;;;;;;;7.83;6.80;;;1.80;99.60;;;;;;5074337;28;20449;-69
2024/01/08 08:18:47;;;;;;;8.60;6.83;;;1.80;99.60;;;;;;5073938;28;20817;-69
2024/01/08 08:21:14;;;;;;;12.40;7.50;;;1.80;99.90;;;;;;5073784;28;20456;-69
2024/01/08 08:23:42;;;;;;;9.73;7.93;;;1.70;99.90;;;;;;5074018;28;20441;-69
2024/01/08 08:26:09;;;;;;;8.57;6.23;;;1.80;99.90;;;;;;5073786;28;20444;-69
2024/01/08 08:28:35;;;;;;;7.20;6.03;;;1.80;99.90;;;;;;5072860;28;20982;-68
2024/01/08 08:31:02;;;;;;;7.17;6.00;;;1.80;99.60;;;;;;5073633;28;20449;-68
2024/01/08 08:33:29;;;;;;;7.57;6.00;;;1.80;99.20;;;;;;5073502;28;20528;-69
2024/01/08 08:35:56;;;;;;;7.63;4.83;;;1.90;98.50;;;;;;5073380;28;20488;-69
2024/01/08 08:38:22;;;;;;;5.77;5.20;;;1.80;98.40;;;;;;5073435;28;20460;-69
2024/01/08 08:40:50;;;;;;;5.93;5.10;;;1.80;96.70;;;;;;5073346;28;20815;-69
2024/01/08 08:43:17;;;;;;;6.67;5.30;;;1.70;97.60;;;;;;5073436;28;20448;-69
2024/01/08 08:45:44;;;;;;;7.23;5.40;;;1.70;97.90;;;;;;5073165;28;20448;-69
2024/01/08 08:48:11;;;;;;;7.10;5.33;;;1.80;97.50;;;;;;5073420;28;20841;-69
2024/01/08 08:50:37;;;;;;;7.20;5.30;;;1.80;97.30;;;;;;5073361;28;20449;-69
2024/01/08 08:53:04;;;;;;;8.07;6.50;;;1.90;97.40;;;;;;5073058;28;20448;-69
2024/01/08 08:55:31;;;;;;;7.83;6.70;;;1.90;97.40;;;;;;5073225;28;20480;-68
2024/01/08 08:57:59;;;;;;;7.50;5.63;;;2.00;97.50;;;;;;5073244;28;20456;-69
2024/01/08 09:00:26;;;;;;;9.63;6.20;;;2.00;97.70;;;;;;5072914;28;20857;-68
2024/01/08 09:02:54;;;;;;;9.63;7.20;;;2.00;98.00;;;;;;5073549;28;20443;-69
2024/01/08 09:05:21;;;;;;;11.23;6.73;;;2.10;98.10;;;;;;5073319;28;20498;-69
2024/01/08 09:07:48;;;;;;;7.87;6.40;;;2.10;98.30;;;;;;5073141;28;20464;-69
2024/01/08 09:10:16;;;;;;;7.50;6.67;;;2.10;98.50;;;;;;5072841;28;20946;-69
2024/01/08 09:12:42;;;;;;;7.50;6.70;;;2.10;98.40;;;;;;5073042;28;20494;-68
2024/01/08 09:15:11;;;;;;;7.73;6.67;;;2.10;98.40;;;;;;5072685;28;20479;-69
2024/01/08 09:17:37;;;;;;;10.73;6.47;;;2.20;98.50;;;;;;5073107;28;20464;-69
2024/01/08 09:20:08;;;;;;;8.13;6.53;;;2.20;98.50;;;;;;5073183;28;20444;-69
2024/01/08 09:22:35;;;;;;;9.50;6.50;;;2.20;98.60;;;;;;5073154;28;20429;-69
2024/01/08 09:25:04;;;;;;;9.03;7.00;;;2.20;98.50;;;;;;5073076;28;20440;-69
2024/01/08 09:27:31;;;;;;;8.40;7.50;;;2.20;98.00;;;;;;5073067;28;20502;-69
2024/01/08 09:29:58;;;;;;;7.97;6.80;;;2.10;98.10;;;;;;5072924;28;20444;-69
2024/01/08 09:32:26;;;;;;;8.10;6.73;;;2.10;98.20;;;;;;5072840;28;20440;-69
2024/01/08 09:34:53;;;;;;;7.83;7.00;;;2.10;98.40;;;;;;5072607;28;20480;-69
2024/01/08 09:37:20;;;;;;;9.77;7.10;;;2.10;98.50;;;;;;5072879;28;20464;-69
2024/01/08 09:39:47;;;;;;;8.00;7.10;;;2.10;98.70;;;;;;5073044;28;20502;-69
2024/01/08 09:42:15;;;;;;;8.70;7.77;;;2.10;99.00;;;;;;5076359;28;20922;-69
2024/01/08 09:44:46;;;;;;;8.63;6.80;;;2.20;99.20;;;;;;5076611;28;20448;-69
2024/01/08 09:47:13;;;;;;;9.03;7.63;;;2.10;99.20;;;;;;5076588;28;20464;-69
2024/01/08 09:49:42;;;;;;;9.57;7.17;;;2.20;99.40;;;;;;5076476;28;20486;-69
2024/01/08 09:52:13;;;;;;;9.20;6.97;;;2.20;99.40;;;;;;5076338;28;20452;-68
2024/01/08 09:54:41;;;;;;;9.50;7.40;;;2.10;99.80;;;;;;5076081;28;20476;-69
2024/01/08 09:57:08;;;;;;;11.93;7.23;;;2.20;99.80;;;;;;5076331;28;20441;-69
2024/01/08 09:59:35;;;;;;;11.10;7.10;;;2.20;99.60;;;;;;5076422;28;20499;-69
2024/01/08 10:02:02;;;;;;;8.67;6.60;;;2.20;99.70;;;;;;5076209;28;20451;-69
2024/01/08 10:04:30;;;;;;;10.90;7.63;;;2.20;99.50;;;;;;5076000;28;20447;-69
2024/01/08 10:07:06;;;;;;;9.57;7.90;;;2.20;99.40;;;;;;5076348;28;20445;-69
2024/01/08 10:09:32;;;;;;;8.50;7.70;;;2.30;99.40;;;;;;5076171;28;20435;-69
2024/01/08 10:11:59;;;;;;;8.80;7.00;;;2.40;99.50;;;;;;5075742;28;21072;-69
2024/01/08 10:14:26;;;;;;;9.60;7.50;;;2.50;99.20;;;;;;5076218;28;20436;-68
2024/01/08 10:16:54;;;;;;;9.77;7.73;;;2.60;98.90;;;;;;5075981;28;20444;-69
2024/01/08 10:19:23;;;;;;;11.23;7.67;;;2.60;98.40;;;;;;5075678;28;20866;-69
2024/01/08 10:22:09;;;;;;;8.50;7.60;;;2.70;98.20;;;;;;5076156;28;20441;-68
2024/01/08 10:24:38;;;;;;;8.37;7.10;;;2.70;98.20;;;;;;5076831;28;20421;-68
2024/01/08 10:27:05;;;;;;;9.17;6.97;;;2.70;98.40;;;;;;5075805;28;20461;-69
2024/01/08 10:29:32;;;;;;;10.37;8.57;;;2.70;98.30;;;;;;5075858;28;20467;-69
2024/01/08 10:31:59;;;;;;;8.80;7.07;;;2.70;98.20;;;;;;5075839;28;20489;-69
2024/01/08 10:34:27;;;;;;;10.93;7.30;;;2.70;98.10;;;;;;5076034;28;20536;-70
2024/01/08 10:36:53;;;;;;;8.07;7.00;;;2.70;97.90;;;;;;5078921;28;20440;-70
2024/01/08 10:39:22;;;;;;;7.23;6.13;;;2.80;97.40;;;;;;5077919;28;20869;-68
2024/01/08 10:41:50;;;;;;;10.30;6.30;;;2.80;97.30;;;;;;5077064;28;20441;-69
2024/01/08 10:44:17;;;;;;;8.90;5.77;;;2.70;96.20;;;;;;5076695;28;20499;-69
2024/01/08 10:46:53;;;;;;;9.83;5.30;;;2.80;96.40;;;;;;5076536;28;20444;-69
2024/01/08 10:49:20;;;;;;;5.43;4.93;;;2.80;95.80;;;;;;5076195;28;20441;-69
2024/01/08 10:51:49;;;;;;;5.50;5.00;;;2.80;94.80;;;;;;5075242;28;20957;-69
2024/01/08 10:54:18;;;;;;;7.40;5.50;;;2.90;94.70;;;;;;5076207;28;20444;-69
2024/01/08 10:56:50;;;;;;;6.93;6.23;;;3.10;94.30;;;;;;5075779;28;20989;-68
2024/01/08 10:59:22;;;;;;;7.10;5.20;;;3.20;94.10;;;;;;5075581;28;20467;-68
2024/01/08 11:01:51;;;;;;;8.70;4.53;;;3.30;93.90;;;;;;5074829;28;20433;-67
2024/01/08 11:04:18;;;;;;;7.10;4.53;;;3.30;92.40;;;;;;5075422;28;20494;-67
2024/01/08 11:06:48;;;;;;;6.83;4.33;;;3.40;91.50;;;;;;5075460;28;20441;-68
2024/01/08 11:09:33;;;;;;;5.47;4.03;;;3.40;91.00;;;;;;5075406;28;20514;-67
2024/01/08 11:12:03;;;;;;;4.90;3.47;;;3.40;89.40;;;;;;5074988;28;20417;-67
2024/01/08 11:14:30;;;;;;;4.00;3.60;;;3.30;84.40;;;;;;5075201;28;20433;-67
2024/01/08 11:16:57;;;;;;;7.13;4.60;;;3.30;85.30;;;;;;5075119;28;20451;-67
2024/01/08 11:19:27;;;;;;;4.60;3.80;;;3.20;83.70;;;;;;5075263;28;20445;-67
2024/01/08 11:22:10;;;;;;;5.13;3.80;;;3.20;84.90;;;;;;5074764;28;20878;-67
2024/01/08 11:24:37;;;;;;;4.93;4.03;;;3.40;83.70;;;;;;5075288;28;20425;-67
2024/01/08 11:27:05;;;;;;;4.73;4.13;;;3.60;84.10;;;;;;5075052;28;20464;-66
2024/01/08 11:29:34;;;;;;;6.13;4.73;;;3.80;83.70;;;;;;5074999;28;20445;-67
2024/01/08 11:32:45;;;;;;;4.50;3.80;;;3.90;78.80;;;;;;5074757;28;20452;-67
2024/01/08 11:35:13;;;;;;;5.70;3.50;;;4.00;75.00;;;;;;5068036;28;20488;-67
2024/01/08 11:37:40;;;;;;;7.30;4.10;;;4.10;76.20;;;;;;5075110;28;20579;-67
2024/01/08 11:40:17;;;;;;;3.23;2.93;;;4.30;74.50;;;;;;5074400;28;20445;-67
2024/01/08 11:42:46;;;;;;;5.30;3.47;;;4.60;71.00;;;;;;5074604;28;20436;-67
2024/01/08 11:45:13;;;;;;;8.03;3.53;;;4.80;69.00;;;;;;5074300;28;20524;-67
2024/01/08 11:47:40;;;;;;;7.20;3.33;;;4.90;67.70;;;;;;5074149;28;20467;-66
2024/01/08 11:50:08;;;;;;;10.17;3.67;;;5.10;65.20;;;;;;5074439;28;20448;-66
2024/01/08 11:52:38;;;;;;;4.70;3.50;;;5.20;62.60;;;;;;5074408;28;20453;-66
2024/01/08 11:55:06;;;;;;;5.00;3.17;;;5.30;59.90;;;;;;5074123;28;20480;-66
2024/01/08 11:57:34;;;;;;;7.63;4.30;;;5.50;60.30;;;;;;5074057;28;20479;-66
2024/01/08 12:00:11;;;;;;;4.17;3.77;;;5.60;57.20;;;;;;5074340;28;20448;-66
2024/01/08 12:02:39;;;;;;;9.00;3.67;;;5.70;58.70;;;;;;5073220;28;20911;-66
2024/01/08 12:05:07;;;;;;;3.53;3.23;;;5.80;58.50;;;;;;5074468;28;20818;-66
2024/01/08 12:07:37;;;;;;;7.27;4.00;;;5.90;58.00;;;;;;5074228;28;20472;-66
2024/01/08 12:10:06;;;;;;;5.03;4.33;;;6.00;58.50;;;;;;5074209;28;20429;-66
2024/01/08 12:12:32;;;;;;;4.03;3.63;;;6.10;58.80;;;;;;5073932;28;20943;-66
2024/01/08 12:14:59;;;;;;;7.83;4.00;;;6.30;57.50;;;;;;5073911;28;20452;-66
2024/01/08 12:17:27;;;;;;;4.70;4.20;;;6.50;56.70;;;;;;5074069;28;20460;-66
2024/01/08 12:19:55;;;;;;;5.63;4.17;;;6.60;56.40;;;;;;5073915;28;20456;-66
2024/01/08 12:22:23;;;;;;;4.50;4.03;;;6.70;55.70;;;;;;5073969;28;20445;-66
2024/01/08 12:24:52;;;;;;;5.80;4.23;;;6.80;55.10;;;;;;5073875;28;20436;-66
2024/01/08 12:27:21;;;;;;;12.80;4.13;;;6.70;53.30;;;;;;5073751;28;20476;-66
2024/01/08 12:29:50;;;;;;;3.50;3.20;;;6.70;55.20;;;;;;5073483;28;20440;-66
2024/01/08 12:32:18;;;;;;;4.40;3.80;;;6.70;54.80;;;;;;5073930;28;20445;-66
2024/01/08 12:34:47;;;;;;;5.57;4.10;;;6.80;54.00;;;;;;5073780;28;20452;-66
2024/01/08 12:37:16;;;;;;;7.83;4.63;;;6.70;53.30;;;;;;5073439;28;20557;-66
2024/01/08 12:39:44;;;;;;;5.60;3.80;;;6.80;53.10;;;;;;5073711;28;20444;-66
2024/01/08 12:42:13;;;;;;;6.03;3.80;;;6.90;52.50;;;;;;5073845;28;20452;-66
2024/01/08 12:44:41;;;;;;;3.23;2.83;;;6.80;52.20;;;;;;5073173;28;20444;-66
2024/01/08 12:47:08;;;;;;;4.20;3.60;;;6.70;51.00;;;;;;5073463;28;21057;-66
2024/01/08 12:49:36;;;;;;;9.17;4.23;;;6.70;49.40;;;;;;5073190;28;20453;-66
2024/01/08 12:52:05;;;;;;;5.20;3.60;;;6.80;51.20;;;;;;5073332;28;21004;-66
2024/01/08 12:54:36;;;;;;;6.90;4.67;;;6.90;51.50;;;;;;5073368;28;20435;-66
2024/01/08 12:57:04;;;;;;;6.37;3.87;;;7.00;51.60;;;;;;5073773;28;20472;-66